Feldkirchen, Austria
Current Conditions -  °F | °C
As of 8:20 PM on Tuesday 21 Oct 2014 (Local Time) from LOWK Reporting Station
Scattered Clouds Scattered Clouds  
Wind Chill: 57°   Ceiling: Unl
Heat Index: 57°   Visibility: 6mi
Dew Point: 54°   Wind: 2mph
Humidity: 88%   Direction: NA
Pressure: 29.71"   Gusts: NA
Location:  46.73°N, 14.08°E
Report Text: LOWK 211820Z VRB02KT 9999 FEW040 SCT120 14/12 Q1006 NOSIG
Loading
Personal Weather Stations






























Interactive Weather Map
Tropical Storm Tracking
New forecast layout! Learn more

10-Day Weather Forecast

Advertisements
Track Severe Weather on mobile